Amis Wisdom II — 3FGI2 — position and weather

sailwx.info

Track history (hours):
 
Tides and Currents Weather Stations Pressure Air Temp Water Temp Dewpoint Dewpoint Depression Visibility Wind Speed Wind Dir Waves Ship Positions

Amis Wisdom II

Last reported at 2014-Sep-15 01:29 UTC. Time now 2014-Sep-15 09:29 UTC.
Position N 31°41' E 121°09'.

Length 200 m; draft 10.1 m.

Type: Cargo ship. MMSI: 357086000.

Date/timePositionNaut miles runAvg speedWind from/ knotsBaromVisibWave heightAir tempDewpointWater temp
2014-Sep-15 01:29N 31°41' E 121°09'0 0.0
2014-Sep-14 21:23N 31°41' E 121°09'0 0.0
2014-Sep-14 20:05N 31°41' E 121°09'0 0.0
2014-Sep-14 16:11N 31°41' E 121°09'0 0.0
2014-Sep-14 14:17N 31°41' E 121°09'0 0.0
2014-Sep-14 13:29N 31°41' E 121°09'0 0.0
2014-Sep-14 12:29N 31°41' E 121°09'0 0.0
2014-Sep-14 10:29N 31°41' E 121°09'0 0.0
2014-Sep-13 18:29N 31°41' E 121°09'0 0.0
2014-Sep-13 11:17N 31°41' E 121°09'0 0.0
2014-Sep-13 10:20N 31°41' E 121°09'0 0.0
2014-Sep-13 05:05N 31°41' E 121°09'0 0.0
2014-Sep-13 03:17N 31°41' E 121°09'0 0.0
2014-Sep-13 02:29N 31°41' E 121°09'0 0.0
2014-Sep-13 00:22N 31°41' E 121°09'0 0.0
2014-Sep-12 22:23N 31°41' E 121°09'0 0.0
2014-Sep-12 21:14N 31°41' E 121°09'0 0.0
2014-Sep-12 20:23N 31°41' E 121°09'0 0.0
2014-Sep-12 19:17N 31°41' E 121°09'0 0.0
2014-Sep-12 18:07N 31°41' E 121°09'0 0.0
2014-Sep-12 14:05N 31°41' E 121°09'0 0.0
2014-Sep-12 11:23N 31°41' E 121°09'0 0.0
2014-Sep-12 10:29N 31°41' E 121°09'0 0.0
2014-Sep-12 09:23N 31°41' E 121°09'0 0.0
2014-Sep-12 05:28N 31°41' E 121°09'0 0.0
2014-Sep-12 04:16N 31°41' E 121°09'0 0.0
2014-Sep-11 20:08N 31°41' E 121°09'0 0.0
2014-Sep-11 14:07N 31°41' E 121°09'0 0.0
2014-Sep-11 10:16N 31°41' E 121°09'0 0.1
2014-Sep-11 09:33N 31°41' E 121°09'7 7.1
2014-Sep-11 08:33N 31°37' E 121°16'1211.6
2014-Sep-11 07:33N 31°29' E 121°26'9 9.1
2014-Sep-11 06:33N 31°24' E 121°34'9 9.4
2014-Sep-11 05:33N 31°19' E 121°44'1210.8
2014-Sep-11 04:28N 31°15' E 121°57'1210.9
2014-Sep-11 03:23N 31°11' E 122°10'1012.2
2014-Sep-11 02:33N 31°06' E 122°20'9 8.7
2014-Sep-11 01:32N 31°07' E 122°30'6 1.9
2014-Sep-10 22:22N 31°10' E 122°37'8 7.4
2014-Sep-10 21:15N 31°06' E 122°45'26 6.8
2014-Sep-10 17:27N 30°45' E 123°01'1310.5
2014-Sep-10 16:15N 30°32' E 123°01'911.5
2014-Sep-10 15:28N 30°23' E 122°60'1112.2
2014-Sep-10 14:32N 30°12' E 123°00'1010.0
2014-Sep-10 13:30N 30°02' E 122°55'1411.0
2014-Sep-10 12:12N 29°53' E 122°42'710.5
2014-Sep-10 11:30N 29°48' E 122°36'9 9.3
2014-Sep-10 10:33N 29°42' E 122°28'1110.6
2014-Sep-10 09:33N 29°46' E 122°17'1211.8
2014-Sep-10 08:33N 29°55' E 122°08'1312.5
2014-Sep-10 07:33N 29°57' E 121°54'2 0.6
2014-Sep-10 03:26N 29°56' E 121°51'0 0.0
2014-Sep-10 00:26N 29°56' E 121°51'0 0.0
2014-Sep-09 23:26N 29°56' E 121°51'0 0.0
2014-Sep-09 20:20N 29°56' E 121°51'0 0.0
2014-Sep-09 18:32N 29°56' E 121°51'0 0.0
2014-Sep-09 17:26N 29°56' E 121°51'0 0.0
2014-Sep-09 16:20N 29°56' E 121°51'0 0.0
2014-Sep-09 14:26N 29°56' E 121°51'0 0.0
2014-Sep-09 13:32N 29°56' E 121°51'0 0.0
2014-Sep-09 12:08N 29°56' E 121°51'0 0.0
2014-Sep-09 10:20N 29°56' E 121°51'0 0.0
2014-Sep-09 09:32N 29°56' E 121°51'0 0.0
2014-Sep-09 08:32N 29°56' E 121°51'0 0.0
2014-Sep-09 07:20N 29°56' E 121°51'0 0.0
2014-Sep-09 06:20N 29°56' E 121°51'0 0.0
2014-Sep-09 05:26N 29°56' E 121°51'0 0.0
2014-Sep-09 04:08N 29°56' E 121°51'0 0.0
2014-Sep-09 02:14N 29°56' E 121°51'0 0.0
2014-Sep-09 01:14N 29°56' E 121°51'0 0.0
2014-Sep-09 00:26N 29°56' E 121°51'0 0.0
2014-Sep-08 23:32N 29°56' E 121°51'0 0.0
2014-Sep-08 21:26N 29°56' E 121°51'0 0.0
2014-Sep-08 20:26N 29°56' E 121°51'0 0.0
2014-Sep-08 19:14N 29°56' E 121°51'0 0.0
2014-Sep-08 18:08N 29°56' E 121°51'0 0.0
2014-Sep-08 17:26N 29°56' E 121°51'0 0.0
2014-Sep-08 16:14N 29°56' E 121°51'0 0.0
2014-Sep-08 14:32N 29°56' E 121°51'0 0.0
2014-Sep-08 13:26N 29°56' E 121°51'0 0.0
2014-Sep-08 12:20N 29°56' E 121°51'0 0.0
2014-Sep-08 11:32N 29°56' E 121°51'0 0.0
2014-Sep-08 09:23N 29°56' E 121°51'0 0.1
2014-Sep-08 08:33N 29°57' E 121°51'6 5.5
2014-Sep-08 07:33N 29°58' E 121°57'7 6.7
2014-Sep-08 06:34N 29°56' E 122°05'7 6.9
2014-Sep-08 05:33N 29°52' E 122°12'6 6.5
2014-Sep-08 04:33N 29°47' E 122°16'6 6.0
2014-Sep-08 03:32N 29°43' E 122°22'6 6.3
2014-Sep-08 02:33N 29°37' E 122°23'0 0.0
2014-Sep-07 23:23N 29°37' E 122°23'0 0.0
2014-Sep-07 22:17N 29°37' E 122°23'0 0.1
2014-Sep-07 20:05N 29°37' E 122°23'0 0.1
2014-Sep-07 19:29N 29°37' E 122°23'2 2.6
2014-Sep-07 18:33N 29°35' E 122°25'7 7.0
2014-Sep-07 17:30N 29°30' E 122°32'9 9.8
2014-Sep-07 16:33N 29°21' E 122°34'1110.4
2014-Sep-07 15:29N 29°10' E 122°33'1010.7
2014-Sep-07 14:32N 29°00' E 122°33'1110.7
2014-Sep-07 13:33N 28°50' E 122°32'1410.9
2014-Sep-07 12:15N 28°36' E 122°29'  
Track history (hours):
 
Tides and Currents Weather Stations Pressure Air Temp Water Temp Dewpoint Dewpoint Depression Visibility Wind Speed Wind Dir Waves Ship Positions

Amis Wisdom II

Last reported at 2014-Sep-15 01:29 UTC. Time now 2014-Sep-15 09:29 UTC.
Position N 31°41' E 121°09'.

Length 200 m; draft 10.1 m.

Type: Cargo ship. MMSI: 357086000.

Date/timePositionNaut miles runAvg speedWind from/ knotsBaromVisibWave heightAir tempDewpointWater temp
2014-Sep-15 01:29N 31°41' E 121°09'0 0.0
2014-Sep-14 21:23N 31°41' E 121°09'0 0.0
2014-Sep-14 20:05N 31°41' E 121°09'0 0.0
2014-Sep-14 16:11N 31°41' E 121°09'0 0.0
2014-Sep-14 14:17N 31°41' E 121°09'0 0.0
2014-Sep-14 13:29N 31°41' E 121°09'0 0.0
2014-Sep-14 12:29N 31°41' E 121°09'0 0.0
2014-Sep-14 10:29N 31°41' E 121°09'0 0.0
2014-Sep-13 18:29N 31°41' E 121°09'0 0.0
2014-Sep-13 11:17N 31°41' E 121°09'0 0.0
2014-Sep-13 10:20N 31°41' E 121°09'0 0.0
2014-Sep-13 05:05N 31°41' E 121°09'0 0.0
2014-Sep-13 03:17N 31°41' E 121°09'0 0.0
2014-Sep-13 02:29N 31°41' E 121°09'0 0.0
2014-Sep-13 00:22N 31°41' E 121°09'0 0.0
2014-Sep-12 22:23N 31°41' E 121°09'0 0.0
2014-Sep-12 21:14N 31°41' E 121°09'0 0.0
2014-Sep-12 20:23N 31°41' E 121°09'0 0.0
2014-Sep-12 19:17N 31°41' E 121°09'0 0.0
2014-Sep-12 18:07N 31°41' E 121°09'0 0.0
2014-Sep-12 14:05N 31°41' E 121°09'0 0.0
2014-Sep-12 11:23N 31°41' E 121°09'0 0.0
2014-Sep-12 10:29N 31°41' E 121°09'0 0.0
2014-Sep-12 09:23N 31°41' E 121°09'0 0.0
2014-Sep-12 05:28N 31°41' E 121°09'0 0.0
2014-Sep-12 04:16N 31°41' E 121°09'0 0.0
2014-Sep-11 20:08N 31°41' E 121°09'0 0.0
2014-Sep-11 14:07N 31°41' E 121°09'0 0.0
2014-Sep-11 10:16N 31°41' E 121°09'0 0.1
2014-Sep-11 09:33N 31°41' E 121°09'7 7.1
2014-Sep-11 08:33N 31°37' E 121°16'1211.6
2014-Sep-11 07:33N 31°29' E 121°26'9 9.1
2014-Sep-11 06:33N 31°24' E 121°34'9 9.4
2014-Sep-11 05:33N 31°19' E 121°44'1210.8
2014-Sep-11 04:28N 31°15' E 121°57'1210.9
2014-Sep-11 03:23N 31°11' E 122°10'1012.2
2014-Sep-11 02:33N 31°06' E 122°20'9 8.7
2014-Sep-11 01:32N 31°07' E 122°30'6 1.9
2014-Sep-10 22:22N 31°10' E 122°37'8 7.4
2014-Sep-10 21:15N 31°06' E 122°45'26 6.8
2014-Sep-10 17:27N 30°45' E 123°01'1310.5
2014-Sep-10 16:15N 30°32' E 123°01'911.5
2014-Sep-10 15:28N 30°23' E 122°60'1112.2
2014-Sep-10 14:32N 30°12' E 123°00'1010.0
2014-Sep-10 13:30N 30°02' E 122°55'1411.0
2014-Sep-10 12:12N 29°53' E 122°42'710.5
2014-Sep-10 11:30N 29°48' E 122°36'9 9.3
2014-Sep-10 10:33N 29°42' E 122°28'1110.6
2014-Sep-10 09:33N 29°46' E 122°17'1211.8
2014-Sep-10 08:33N 29°55' E 122°08'1312.5
2014-Sep-10 07:33N 29°57' E 121°54'2 0.6
2014-Sep-10 03:26N 29°56' E 121°51'0 0.0
2014-Sep-10 00:26N 29°56' E 121°51'0 0.0
2014-Sep-09 23:26N 29°56' E 121°51'0 0.0
2014-Sep-09 20:20N 29°56' E 121°51'0 0.0
2014-Sep-09 18:32N 29°56' E 121°51'0 0.0
2014-Sep-09 17:26N 29°56' E 121°51'0 0.0
2014-Sep-09 16:20N 29°56' E 121°51'0 0.0
2014-Sep-09 14:26N 29°56' E 121°51'0 0.0
2014-Sep-09 13:32N 29°56' E 121°51'0 0.0
2014-Sep-09 12:08N 29°56' E 121°51'0 0.0
2014-Sep-09 10:20N 29°56' E 121°51'0 0.0
2014-Sep-09 09:32N 29°56' E 121°51'0 0.0
2014-Sep-09 08:32N 29°56' E 121°51'0 0.0
2014-Sep-09 07:20N 29°56' E 121°51'0 0.0
2014-Sep-09 06:20N 29°56' E 121°51'0 0.0
2014-Sep-09 05:26N 29°56' E 121°51'0 0.0
2014-Sep-09 04:08N 29°56' E 121°51'0 0.0
2014-Sep-09 02:14N 29°56' E 121°51'0 0.0
2014-Sep-09 01:14N 29°56' E 121°51'0 0.0
2014-Sep-09 00:26N 29°56' E 121°51'0 0.0
2014-Sep-08 23:32N 29°56' E 121°51'0 0.0
2014-Sep-08 21:26N 29°56' E 121°51'0 0.0
2014-Sep-08 20:26N 29°56' E 121°51'0 0.0
2014-Sep-08 19:14N 29°56' E 121°51'0 0.0
2014-Sep-08 18:08N 29°56' E 121°51'0 0.0
2014-Sep-08 17:26N 29°56' E 121°51'0 0.0
2014-Sep-08 16:14N 29°56' E 121°51'0 0.0
2014-Sep-08 14:32N 29°56' E 121°51'0 0.0
2014-Sep-08 13:26N 29°56' E 121°51'0 0.0
2014-Sep-08 12:20N 29°56' E 121°51'0 0.0
2014-Sep-08 11:32N 29°56' E 121°51'0 0.0
2014-Sep-08 09:23N 29°56' E 121°51'0 0.1
2014-Sep-08 08:33N 29°57' E 121°51'6 5.5
2014-Sep-08 07:33N 29°58' E 121°57'7 6.7
2014-Sep-08 06:34N 29°56' E 122°05'7 6.9
2014-Sep-08 05:33N 29°52' E 122°12'6 6.5
2014-Sep-08 04:33N 29°47' E 122°16'6 6.0
2014-Sep-08 03:32N 29°43' E 122°22'6 6.3
2014-Sep-08 02:33N 29°37' E 122°23'0 0.0
2014-Sep-07 23:23N 29°37' E 122°23'0 0.0
2014-Sep-07 22:17N 29°37' E 122°23'0 0.1
2014-Sep-07 20:05N 29°37' E 122°23'0 0.1
2014-Sep-07 19:29N 29°37' E 122°23'2 2.6
2014-Sep-07 18:33N 29°35' E 122°25'7 7.0
2014-Sep-07 17:30N 29°30' E 122°32'9 9.8
2014-Sep-07 16:33N 29°21' E 122°34'1110.4
2014-Sep-07 15:29N 29°10' E 122°33'1010.7
2014-Sep-07 14:32N 29°00' E 122°33'1110.7
2014-Sep-07 13:33N 28°50' E 122°32'1410.9
2014-Sep-07 12:15N 28°36' E 122°29'  

Dump ship's entire track history